Time;durP1;ratioP1;P1;durP2;ratioP2;P2;SDS_P1;SDS_P2;PMS_P1;PMS_P2;Temp;Humidity;BMP_temperature;BMP_pressure;BME280_temperature;BME280_humidity;BME280_pressure;Samples;Min_cycle;Max_cycle;Signal;HPM_P1;HPM_P2
2021/05/28 00:02:18;;;;;;;3.70;2.10;;;;;;;13.28;68.71;100189.00;5056600;28;20051;-70
2021/05/28 00:04:45;;;;;;;4.50;2.05;;;;;;;13.24;68.76;100181.31;5056017;28;20520;-71
2021/05/28 00:07:13;;;;;;;4.47;2.15;;;;;;;13.24;69.16;100176.81;5056468;28;20394;-70
2021/05/28 00:09:47;;;;;;;5.25;2.10;;;;;;;13.10;69.54;100177.75;5055936;28;20048;-74
2021/05/28 00:12:15;;;;;;;4.38;2.40;;;;;;;13.10;69.70;100175.06;5056013;28;20045;-70
2021/05/28 00:14:43;;;;;;;3.42;2.10;;;;;;;13.09;69.50;100173.38;5056180;28;20382;-71
2021/05/28 00:17:11;;;;;;;3.90;2.10;;;;;;;12.99;69.71;100164.28;5056227;28;20124;-70
2021/05/28 00:19:39;;;;;;;3.63;2.08;;;;;;;13.08;69.57;100171.66;5055900;28;20048;-71
2021/05/28 00:22:07;;;;;;;4.35;2.33;;;;;;;13.10;69.38;100175.06;5055609;28;20048;-71
2021/05/28 00:24:35;;;;;;;5.00;2.50;;;;;;;12.98;69.84;100167.94;5056196;28;20049;-70
2021/05/28 00:27:02;;;;;;;4.30;2.40;;;;;;;12.97;69.69;100174.25;5055520;28;20044;-71
2021/05/28 00:29:34;;;;;;;4.20;2.25;;;;;;;12.96;69.30;100177.91;5055780;28;20490;-74
2021/05/28 00:32:02;;;;;;;5.28;2.03;;;;;;;12.92;69.16;100173.72;5055676;28;20433;-74
2021/05/28 00:34:30;;;;;;;3.22;2.20;;;;;;;12.87;69.50;100173.19;5055669;28;20513;-74
2021/05/28 00:36:58;;;;;;;3.20;1.95;;;;;;;12.91;69.51;100163.97;5055433;28;20048;-75
2021/05/28 00:39:25;;;;;;;4.72;2.45;;;;;;;12.94;68.95;100166.44;5055720;28;20528;-72
2021/05/28 00:41:54;;;;;;;3.30;2.10;;;;;;;12.80;69.79;100179.94;5055352;28;20446;-73
2021/05/28 00:44:23;;;;;;;3.72;2.10;;;;;;;12.80;70.05;100177.25;5055610;28;20406;-72
2021/05/28 00:46:52;;;;;;;6.43;2.63;;;;;;;12.63;70.83;100175.75;5054983;28;20041;-73
2021/05/28 00:49:20;;;;;;;4.78;2.35;;;;;;;12.62;70.73;100168.69;5055272;28;20041;-72
2021/05/28 00:51:47;;;;;;;4.40;2.30;;;;;;;12.70;70.22;100170.84;5054886;28;20048;-75
2021/05/28 00:54:15;;;;;;;3.75;2.40;;;;;;;12.57;71.19;100170.84;5055420;28;20052;-73
2021/05/28 00:56:44;;;;;;;3.63;2.38;;;;;;;12.57;70.95;100171.72;5055286;28;20052;-74
2021/05/28 00:59:13;;;;;;;3.75;2.42;;;;;;;12.58;70.78;100172.56;5054849;28;20047;-72
2021/05/28 01:01:40;;;;;;;4.45;2.60;;;;;;;12.60;70.42;100168.81;5053984;28;20516;-73
2021/05/28 01:04:09;;;;;;;4.05;2.42;;;;;;;12.55;70.64;100168.28;5054670;28;20056;-70
2021/05/28 01:06:37;;;;;;;5.00;2.20;;;;;;;12.50;70.97;100169.56;5054995;28;20458;-69
2021/05/28 01:09:06;;;;;;;4.32;2.33;;;;;;;12.50;70.73;100170.41;5054845;28;20079;-70
2021/05/28 01:11:36;;;;;;;3.53;2.28;;;;;;;12.50;70.84;100172.22;5055205;28;20044;-71
2021/05/28 01:14:04;;;;;;;4.53;2.50;;;;;;;12.55;70.20;100162.09;5054845;28;20132;-71
2021/05/28 01:16:32;;;;;;;5.35;2.50;;;;;;;12.46;70.72;100168.94;5054736;28;20045;-72
2021/05/28 01:19:00;;;;;;;3.13;2.25;;;;;;;12.42;70.57;100167.41;5054333;28;20037;-71
2021/05/28 01:21:29;;;;;;;4.00;2.42;;;;;;;12.41;70.57;100167.53;5054515;28;20051;-69
2021/05/28 01:23:58;;;;;;;4.70;2.47;;;;;;;12.43;70.09;100163.78;5054416;28;20080;-70
2021/05/28 01:26:28;;;;;;;3.95;2.60;;;;;;;12.45;70.26;100166.34;5054977;28;20041;-70
2021/05/28 01:28:56;;;;;;;4.68;2.40;;;;;;;12.44;70.26;100157.44;5054347;28;20045;-70
2021/05/28 01:31:24;;;;;;;4.93;2.60;;;;;;;12.39;70.61;100161.44;5054659;28;20041;-70
2021/05/28 01:33:51;;;;;;;4.28;2.55;;;;;;;12.40;70.37;100163.13;5054385;28;20044;-70
2021/05/28 01:36:19;;;;;;;4.53;2.55;;;;;;;12.35;70.56;100165.25;5054542;28;20128;-69
2021/05/28 01:38:47;;;;;;;4.25;2.55;;;;;;;12.37;70.51;100166.88;5053108;28;20110;-69
2021/05/28 01:41:16;;;;;;;3.45;2.38;;;;;;;12.43;70.37;100171.78;5054223;28;20041;-69
2021/05/28 01:43:46;;;;;;;4.43;2.60;;;;;;;12.40;70.47;100174.69;5054269;28;20053;-69
2021/05/28 01:46:16;;;;;;;4.37;2.40;;;;;;;12.32;70.90;100167.19;5054323;28;20075;-70
2021/05/28 01:48:44;;;;;;;4.60;2.70;;;;;;;12.38;70.75;100165.91;5054236;28;20282;-73
2021/05/28 01:51:12;;;;;;;4.45;2.60;;;;;;;12.32;70.98;100155.63;5053760;28;20079;-73
2021/05/28 01:53:41;;;;;;;5.15;2.63;;;;;;;12.35;70.81;100165.25;5054318;28;20059;-72
2021/05/28 01:56:09;;;;;;;5.35;2.65;;;;;;;12.28;71.06;100163.03;5053747;28;20120;-72
2021/05/28 01:58:38;;;;;;;3.63;2.63;;;;;;;12.22;71.38;100175.94;5054204;28;20041;-72
2021/05/28 02:01:06;;;;;;;4.90;2.92;;;;;;;12.18;72.00;100169.97;5053855;28;20413;-72
2021/05/28 02:03:34;;;;;;;4.43;2.55;;;;;;;12.08;72.48;100173.38;5053763;28;20075;-69
2021/05/28 02:06:01;;;;;;;4.60;2.83;;;;;;;12.12;72.67;100172.19;5053814;28;20041;-69
2021/05/28 02:08:29;;;;;;;4.63;2.80;;;;;;;12.18;72.29;100177.13;5052778;28;20095;-70
2021/05/28 02:10:57;;;;;;;4.95;2.65;;;;;;;12.08;72.84;100168.03;5053390;28;20490;-72
2021/05/28 02:13:24;;;;;;;4.90;2.72;;;;;;;12.07;72.80;100163.63;5053655;28;20039;-71
2021/05/28 02:15:53;;;;;;;4.97;3.00;;;;;;;12.11;72.88;100183.84;5053600;28;20090;-75
2021/05/28 02:18:22;;;;;;;4.18;2.60;;;;;;;12.07;72.92;100177.84;5053639;28;20053;-75
2021/05/28 02:20:50;;;;;;;5.97;3.03;;;;;;;12.02;72.65;100164.78;5053639;28;20047;-76
2021/05/28 02:23:19;;;;;;;5.80;3.10;;;;;;;12.00;72.95;100171.22;5053326;28;20045;-76
2021/05/28 02:25:47;;;;;;;4.20;2.72;;;;;;;12.04;72.62;100170.88;5053795;28;20045;-71
2021/05/28 02:28:17;;;;;;;5.93;2.97;;;;;;;12.00;72.76;100172.06;5053246;28;20445;-71
2021/05/28 02:30:45;;;;;;;4.78;2.65;;;;;;;12.04;72.48;100173.56;5053552;28;20045;-71
2021/05/28 02:33:14;;;;;;;5.82;3.00;;;;;;;12.01;72.65;100171.09;5053080;28;20045;-72
2021/05/28 02:35:42;;;;;;;4.82;3.05;;;;;;;11.95;72.85;100174.16;5053300;28;20049;-71
2021/05/28 02:38:10;;;;;;;5.80;3.00;;;;;;;11.95;72.99;100163.47;5052947;28;20443;-71
2021/05/28 02:40:38;;;;;;;4.68;2.90;;;;;;;11.96;73.08;100170.53;5052132;28;20483;-70
2021/05/28 02:43:06;;;;;;;4.40;3.03;;;;;;;11.93;73.05;100165.41;5053043;28;20548;-70
2021/05/28 02:45:34;;;;;;;5.50;2.97;;;;;;;11.92;72.89;100162.84;5053154;28;20049;-71
2021/05/28 02:48:02;;;;;;;4.15;2.55;;;;;;;11.90;73.25;100165.63;5052858;28;20044;-71
2021/05/28 02:50:32;;;;;;;4.85;2.95;;;;;;;11.89;73.38;100166.59;5053059;28;20041;-71
2021/05/28 02:53:01;;;;;;;5.70;3.13;;;;;;;11.86;73.94;100171.25;5053059;28;20043;-70
2021/05/28 02:55:30;;;;;;;3.97;2.80;;;;;;;11.88;73.68;100167.53;5053266;28;20051;-70
2021/05/28 02:57:58;;;;;;;5.63;3.50;;;;;;;11.86;74.03;100169.44;5052789;28;20045;-70
2021/05/28 03:00:28;;;;;;;5.05;3.20;;;;;;;11.86;74.09;100173.94;5053229;28;20470;-70
2021/05/28 03:02:56;;;;;;;4.70;3.30;;;;;;;11.83;74.18;100175.00;5052504;28;20081;-70
2021/05/28 03:05:25;;;;;;;5.50;3.30;;;;;;;11.80;74.63;100174.34;5052877;28;20037;-70
2021/05/28 03:07:56;;;;;;;6.57;3.45;;;;;;;11.69;75.22;100175.88;5052995;28;20048;-75
2021/05/28 03:10:24;;;;;;;5.50;3.25;;;;;;;11.80;75.00;100177.88;5052912;28;20458;-71
2021/05/28 03:12:52;;;;;;;4.90;3.65;;;;;;;11.80;74.50;100175.22;5052828;28;20055;-70
2021/05/28 03:15:19;;;;;;;5.40;3.40;;;;;;;11.76;75.08;100174.50;5052667;28;20378;-71
2021/05/28 03:17:47;;;;;;;5.43;3.45;;;;;;;11.75;74.84;100172.78;5052764;28;20045;-70
2021/05/28 03:20:19;;;;;;;5.40;3.60;;;;;;;11.84;74.47;100175.84;5052516;28;20148;-68
2021/05/28 03:22:47;;;;;;;5.00;3.58;;;;;;;11.83;74.45;100176.81;5052763;28;20064;-68
2021/05/28 03:25:17;;;;;;;7.93;3.83;;;;;;;11.89;73.96;100174.59;5053866;28;20044;-70
2021/05/28 03:27:48;;;;;;;7.05;3.67;;;;;;;11.88;74.14;100188.06;5056725;28;20482;-71
2021/05/28 03:30:18;;;;;;;6.53;3.60;;;;;;;12.01;73.53;100183.59;5056840;28;20064;-69
2021/05/28 03:32:46;;;;;;;5.53;3.28;;;;;;;12.02;73.45;100185.31;5056917;28;20487;-70
2021/05/28 03:35:14;;;;;;;6.68;3.22;;;;;;;12.39;72.02;100185.50;5056424;28;20044;-70
2021/05/28 03:37:42;;;;;;;6.60;3.42;;;;;;;12.60;71.26;100184.88;5056878;28;20124;-76
2021/05/28 03:40:12;;;;;;;5.72;3.20;;;;;;;13.12;69.12;100178.53;5056398;28;20099;-77
2021/05/28 03:42:43;;;;;;;7.63;3.08;;;;;;;13.96;65.68;100191.09;5056621;28;20040;-77
2021/05/28 03:45:11;;;;;;;7.18;3.15;;;;;;;14.62;62.95;100186.09;5056190;28;20045;-74
2021/05/28 03:47:39;;;;;;;4.95;3.30;;;;;;;15.07;60.79;100189.66;5056561;28;20077;-70
2021/05/28 03:50:09;;;;;;;6.90;2.95;;;;;;;15.44;59.22;100187.56;5056046;28;20068;-69
2021/05/28 03:52:37;;;;;;;6.60;2.67;;;;;;;16.29;56.97;100184.94;5056308;28;20055;-71
2021/05/28 03:55:06;;;;;;;4.40;2.88;;;;;;;16.85;54.57;100183.78;5055859;28;20041;-71
2021/05/28 03:57:34;;;;;;;6.53;2.83;;;;;;;16.83;54.24;100189.31;5056181;28;20067;-70
2021/05/28 04:00:05;;;;;;;4.75;2.70;;;;;;;17.48;52.82;100192.56;5055875;28;20040;-71
2021/05/28 04:02:33;;;;;;;5.63;2.83;;;;;;;17.73;51.57;100193.91;5056125;28;20060;-70
2021/05/28 04:05:02;;;;;;;4.45;2.70;;;;;;;17.88;50.30;100194.38;5055824;28;20106;-72
2021/05/28 04:07:30;;;;;;;5.70;2.90;;;;;;;17.85;50.40;100186.53;5056015;28;20041;-71
2021/05/28 04:09:58;;;;;;;7.45;2.58;;;;;;;18.16;49.41;100188.13;5056107;28;20127;-72
2021/05/28 04:12:26;;;;;;;6.38;2.60;;;;;;;17.94;49.23;100191.09;5056102;28;20049;-72
2021/05/28 04:14:55;;;;;;;5.07;2.53;;;;;;;18.28;49.05;100181.56;5055877;28;20041;-71
2021/05/28 04:17:24;;;;;;;5.05;2.40;;;;;;;18.28;48.66;100184.28;5055617;28;20066;-72
2021/05/28 04:19:52;;;;;;;5.47;2.38;;;;;;;18.05;49.56;100172.09;5055689;28;20033;-72
2021/05/28 04:22:23;;;;;;;4.93;2.50;;;;;;;18.12;49.34;100173.19;5055348;28;20049;-70
2021/05/28 04:24:51;;;;;;;4.53;2.50;;;;;;;18.00;49.55;100185.13;5055802;28;20124;-70
2021/05/28 04:27:19;;;;;;;4.20;2.63;;;;;;;15.98;54.71;100192.06;5055461;28;20048;-70
2021/05/28 04:29:49;;;;;;;5.47;2.80;;;;;;;15.00;58.43;100188.44;5055596;28;20049;-70
2021/05/28 04:32:17;;;;;;;4.60;2.35;;;;;;;14.44;60.41;100188.31;5055350;28;20041;-70
2021/05/28 04:34:46;;;;;;;5.18;2.38;;;;;;;14.16;61.25;100200.31;5055475;28;20048;-70
2021/05/28 04:37:14;;;;;;;5.65;2.58;;;;;;;13.98;61.93;100191.81;5054949;28;20049;-71
2021/05/28 04:39:42;;;;;;;3.70;2.45;;;;;;;13.85;61.98;100195.56;5054415;28;20099;-69
2021/05/28 04:42:12;;;;;;;3.67;2.00;;;;;;;13.75;62.19;100193.56;5054956;28;20115;-69
2021/05/28 04:44:40;;;;;;;4.00;2.55;;;;;;;13.85;61.87;100199.09;5055226;28;20064;-68
2021/05/28 04:47:08;;;;;;;6.95;2.85;;;;;;;13.83;62.18;100205.53;5054845;28;20041;-68
2021/05/28 04:49:36;;;;;;;5.88;2.80;;;;;;;14.75;59.98;100205.63;5055390;28;20482;-74
2021/05/28 04:52:05;;;;;;;3.97;2.53;;;;;;;16.23;54.95;100206.16;5055021;28;20041;-73
2021/05/28 04:54:34;;;;;;;4.82;2.78;;;;;;;17.87;50.35;100203.44;5055033;28;20497;-73
2021/05/28 04:57:01;;;;;;;5.03;2.47;;;;;;;18.38;47.86;100191.53;5055294;28;20183;-73
2021/05/28 04:59:29;;;;;;;4.53;2.88;;;;;;;19.25;46.23;100194.88;5055237;28;20174;-73
2021/05/28 05:01:57;;;;;;;6.07;2.63;;;;;;;19.58;45.11;100195.28;5055224;28;20052;-73
2021/05/28 05:04:24;;;;;;;3.95;2.40;;;;;;;18.94;45.65;100202.38;5055126;28;20807;-69
2021/05/28 05:06:52;;;;;;;6.88;2.40;;;;;;;19.71;44.40;100193.09;5054912;28;20091;-70
2021/05/28 05:09:23;;;;;;;7.40;2.50;;;;;;;20.19;42.85;100205.41;5054641;28;20094;-69
2021/05/28 05:11:51;;;;;;;4.72;2.22;;;;;;;19.94;43.68;100221.41;5055195;28;20103;-69
2021/05/28 05:14:19;;;;;;;4.15;2.25;;;;;;;19.67;43.83;100208.75;5054431;28;20040;-69
2021/05/28 05:16:47;;;;;;;4.90;2.38;;;;;;;19.75;43.69;100205.28;5054968;28;20099;-69
2021/05/28 05:19:14;;;;;;;5.80;2.28;;;;;;;20.21;42.48;100211.53;5054529;28;20045;-69
2021/05/28 05:21:42;;;;;;;4.28;2.28;;;;;;;20.15;42.83;100222.97;5054553;28;20068;-71
2021/05/28 05:24:11;;;;;;;5.60;2.20;;;;;;;19.50;43.84;100211.41;5054477;28;20489;-71
2021/05/28 05:26:40;;;;;;;4.32;2.20;;;;;;;20.37;42.42;100208.97;5054437;28;20037;-74
2021/05/28 05:29:09;;;;;;;6.93;2.60;;;;;;;20.24;42.20;100213.91;5054351;28;20072;-72
2021/05/28 05:31:39;;;;;;;7.22;2.42;;;;;;;20.46;42.09;100215.31;5054310;28;20053;-72
2021/05/28 05:34:07;;;;;;;6.00;2.90;;;;;;;20.48;41.75;100225.00;5054324;28;20049;-76
2021/05/28 05:36:39;;;;;;;4.82;2.47;;;;;;;20.74;41.71;100232.31;5054235;28;20041;-70
2021/05/28 05:39:06;;;;;;;3.67;2.20;;;;;;;20.19;41.83;100240.63;5054342;28;20033;-71
2021/05/28 05:41:36;;;;;;;7.90;2.20;;;;;;;20.37;41.80;100229.78;5054550;28;20052;-72
2021/05/28 05:44:05;;;;;;;5.25;2.40;;;;;;;20.89;41.30;100225.31;5054420;28;20053;-74
2021/05/28 05:46:34;;;;;;;5.95;2.35;;;;;;;21.45;40.54;100231.25;5054343;28;20053;-72
2021/05/28 05:49:03;;;;;;;4.57;2.30;;;;;;;21.15;40.17;100237.00;5049796;28;20063;-77
2021/05/28 05:51:30;;;;;;;3.85;2.03;;;;;;;21.01;40.82;100244.88;5045847;28;20521;-70
2021/05/28 05:53:58;;;;;;;5.20;2.80;;;;;;;20.98;41.19;100235.19;5051365;28;20053;-71
2021/05/28 05:56:26;;;;;;;5.93;2.72;;;;;;;21.89;39.33;100240.06;5053851;28;20052;-70
2021/05/28 05:58:54;;;;;;;7.68;2.80;;;;;;;22.51;37.96;100254.13;5053974;28;20391;-70
2021/05/28 06:01:25;;;;;;;8.13;2.55;;;;;;;21.07;39.96;100245.09;5053567;28;20037;-71
2021/05/28 06:03:53;;;;;;;4.55;2.58;;;;;;;21.76;39.38;100235.09;5052046;28;20049;-72
2021/05/28 06:06:20;;;;;;;5.45;2.67;;;;;;;21.89;38.54;100240.91;5051608;28;20049;-74
2021/05/28 06:08:48;;;;;;;3.33;2.10;;;;;;;22.77;37.77;100241.19;5050146;28;20053;-75
2021/05/28 06:11:16;;;;;;;4.68;2.45;;;;;;;22.54;37.79;100240.19;5052715;28;20045;-71
2021/05/28 06:13:44;;;;;;;4.78;2.60;;;;;;;22.55;37.73;100242.72;5052752;28;20045;-72
2021/05/28 06:16:12;;;;;;;3.72;2.20;;;;;;;21.96;38.93;100252.81;5052812;28;20045;-73
2021/05/28 06:18:41;;;;;;;6.20;2.40;;;;;;;21.56;39.35;100245.38;5052506;28;20048;-73
2021/05/28 06:21:10;;;;;;;4.78;2.20;;;;;;;21.86;38.71;100259.41;5052511;28;20110;-72
2021/05/28 06:23:38;;;;;;;5.63;2.40;;;;;;;21.52;39.54;100249.44;5052834;28;20040;-76
2021/05/28 06:26:05;;;;;;;3.88;1.95;;;;;;;21.81;38.56;100245.44;5052305;28;20041;-75
2021/05/28 06:28:33;;;;;;;5.28;2.38;;;;;;;22.06;38.91;100249.94;5052577;28;20721;-74
2021/05/28 06:31:01;;;;;;;7.63;2.30;;;;;;;22.04;38.42;100260.13;5051457;28;20063;-72
2021/05/28 06:33:29;;;;;;;8.52;2.63;;;;;;;21.70;38.39;100258.31;5052418;28;20143;-75
2021/05/28 06:35:58;;;;;;;5.15;2.00;;;;;;;22.19;38.16;100257.63;5053112;28;20077;-74
2021/05/28 06:38:26;;;;;;;4.40;2.13;;;;;;;21.88;38.67;100257.34;5053105;28;20048;-70
2021/05/28 06:40:53;;;;;;;5.22;2.25;;;;;;;21.86;38.04;100267.53;5056031;28;20049;-72
2021/05/28 06:43:21;;;;;;;6.82;2.20;;;;;;;21.34;39.07;100278.50;5052484;28;20107;-73
2021/05/28 06:45:49;;;;;;;5.72;2.17;;;;;;;21.40;39.54;100267.00;5033541;28;20111;-75
2021/05/28 06:48:18;;;;;;;5.25;2.03;;;;;;;22.74;37.00;100268.72;5032692;28;20069;-71
2021/05/28 06:50:45;;;;;;;4.57;2.20;;;;;;;22.51;38.26;100276.72;5032374;28;20049;-72
2021/05/28 06:53:14;;;;;;;8.25;2.40;;;;;;;21.52;38.39;100276.56;5032450;28;20045;-73
2021/05/28 06:55:42;;;;;;;6.70;2.17;;;;;;;20.91;40.88;100276.66;5032137;28;20053;-73
2021/05/28 06:58:11;;;;;;;5.30;2.40;;;;;;;20.55;40.86;100272.13;5032351;28;20073;-69
2021/05/28 07:00:39;;;;;;;4.72;2.20;;;;;;;20.07;41.52;100288.72;5031066;28;20445;-73
2021/05/28 07:03:07;;;;;;;2.63;1.85;;;;;;;19.65;42.41;100277.56;5031881;28;20041;-74
2021/05/28 07:05:35;;;;;;;5.75;2.05;;;;;;;19.19;44.14;100275.72;5032072;28;20047;-75
2021/05/28 07:08:02;;;;;;;4.22;2.25;;;;;;;19.31;43.81;100270.00;5031678;28;20045;-74
2021/05/28 07:10:31;;;;;;;4.53;2.28;;;;;;;19.58;43.82;100271.88;5031500;28;20101;-76
2021/05/28 07:13:00;;;;;;;5.18;1.90;;;;;;;19.83;42.88;100280.31;5031732;28;20128;-75
2021/05/28 07:15:28;;;;;;;4.53;2.20;;;;;;;19.60;43.56;100269.91;5031477;28;20610;-74
2021/05/28 07:17:56;;;;;;;3.50;2.00;;;;;;;19.04;44.90;100272.63;5031820;28;20120;-76
2021/05/28 07:20:24;;;;;;;3.30;1.60;;;;;;;19.05;45.19;100279.75;5048297;28;20049;-74
2021/05/28 07:22:52;;;;;;;4.43;1.90;;;;;;;19.30;45.10;100279.13;5051688;28;20430;-74
2021/05/28 07:25:20;;;;;;;6.45;2.15;;;;;;;19.39;44.33;100283.59;5051524;28;20466;-74
2021/05/28 07:27:49;;;;;;;3.35;1.77;;;;;;;19.21;44.20;100273.75;5051548;28;20047;-75
2021/05/28 07:30:18;;;;;;;4.40;2.20;;;;;;;19.06;44.21;100276.03;5051847;28;20041;-77
2021/05/28 07:32:46;;;;;;;4.32;2.20;;;;;;;18.92;45.49;100281.91;5051747;28;20049;-72
2021/05/28 07:35:15;;;;;;;5.65;1.90;;;;;;;18.56;46.28;100284.34;5051640;28;20475;-73
2021/05/28 07:37:43;;;;;;;3.20;1.60;;;;;;;18.61;45.87;100287.44;5050755;28;20055;-74
2021/05/28 07:40:13;;;;;;;3.42;1.92;;;;;;;18.86;45.41;100280.63;5050851;28;20444;-73
2021/05/28 07:42:41;;;;;;;4.38;2.47;;;;;;;18.92;44.36;100287.31;5049332;28;20045;-73
2021/05/28 07:45:12;;;;;;;3.85;2.10;;;;;;;19.01;45.87;100283.72;5051171;28;20532;-74
2021/05/28 07:47:40;;;;;;;4.28;1.80;;;;;;;19.09;45.56;100286.56;5051158;28;20060;-71
2021/05/28 07:50:10;;;;;;;4.63;2.00;;;;;;;19.05;45.44;100288.72;5050510;28;20041;-72
2021/05/28 07:52:38;;;;;;;6.65;2.00;;;;;;;19.01;45.46;100276.50;5050865;28;20064;-74
2021/05/28 07:55:08;;;;;;;5.80;1.85;;;;;;;18.95;46.02;100287.88;5051119;28;20049;-76
2021/05/28 07:57:36;;;;;;;4.72;1.63;;;;;;;19.06;45.64;100284.16;5031173;28;20045;-78
2021/05/28 08:00:07;;;;;;;6.15;2.20;;;;;;;18.94;44.89;100288.03;5031032;28;20045;-77
2021/05/28 08:02:36;;;;;;;3.75;1.75;;;;;;;19.09;44.84;100289.25;5031097;28;20084;-76
2021/05/28 08:05:06;;;;;;;5.68;2.00;;;;;;;18.86;45.33;100284.19;5031310;28;20415;-75
2021/05/28 08:07:34;;;;;;;3.25;1.65;;;;;;;18.74;45.09;100274.53;5031567;28;20065;-73
2021/05/28 08:10:04;;;;;;;2.85;1.55;;;;;;;18.74;45.94;100279.09;5031918;28;20057;-73
2021/05/28 08:12:32;;;;;;;3.10;1.50;;;;;;;18.72;45.55;100283.75;5035424;28;20103;-75
2021/05/28 08:14:59;;;;;;;2.90;1.92;;;;;;;18.83;46.09;100281.78;5035743;28;20513;-75
2021/05/28 08:17:27;;;;;;;4.72;2.00;;;;;;;18.87;46.12;100287.75;5035434;28;20099;-73
2021/05/28 08:19:57;;;;;;;3.83;2.03;;;;;;;18.76;45.99;100286.06;5047627;28;20080;-73
2021/05/28 08:22:25;;;;;;;4.07;2.00;;;;;;;18.74;45.86;100277.25;5054148;28;20483;-72
2021/05/28 08:24:53;;;;;;;4.60;2.15;;;;;;;18.93;45.33;100284.47;5055222;28;20165;-73
2021/05/28 08:27:23;;;;;;;4.32;1.75;;;;;;;18.86;45.65;100286.03;5055604;28;20041;-74
2021/05/28 08:29:51;;;;;;;3.70;1.90;;;;;;;18.86;45.87;100286.03;5054621;28;20064;-73
2021/05/28 08:32:19;;;;;;;3.65;1.52;;;;;;;19.02;45.49;100286.31;5055151;28;20047;-71
2021/05/28 08:34:47;;;;;;;4.07;2.00;;;;;;;18.90;45.58;100281.19;5055304;28;20044;-71
2021/05/28 08:37:15;;;;;;;3.42;1.63;;;;;;;19.07;46.04;100288.56;5055373;28;20045;-77
2021/05/28 08:39:44;;;;;;;6.95;1.90;;;;;;;19.07;45.36;100284.00;5054670;28;20051;-76
2021/05/28 08:42:12;;;;;;;3.22;1.73;;;;;;;19.24;45.21;100289.66;5055063;28;20401;-74
2021/05/28 08:44:41;;;;;;;5.75;1.55;;;;;;;18.99;45.23;100301.94;5057300;28;20524;-74
2021/05/28 08:47:13;;;;;;;3.25;1.70;;;;;;;19.04;45.86;100287.00;5055173;28;20456;-73
2021/05/28 08:49:43;;;;;;;8.10;2.17;;;;;;;19.23;45.58;100288.81;5054175;28;20041;-74
2021/05/28 08:52:11;;;;;;;4.57;1.95;;;;;;;19.44;44.95;100285.88;5054806;28;20048;-76
2021/05/28 08:54:40;;;;;;;3.25;1.70;;;;;;;19.36;44.71;100292.03;5054953;28;20127;-74
2021/05/28 08:57:08;;;;;;;4.10;1.60;;;;;;;19.23;44.64;100282.53;5054704;28;20124;-74
2021/05/28 08:59:37;;;;;;;3.42;1.60;;;;;;;19.38;44.70;100298.13;5054283;28;20425;-77
2021/05/28 09:02:05;;;;;;;3.92;1.73;;;;;;;19.26;44.57;100296.63;5053216;28;20090;-74
2021/05/28 09:04:32;;;;;;;4.95;1.70;;;;;;;19.29;44.10;100287.34;5054556;28;20049;-76
2021/05/28 09:07:00;;;;;;;1.90;1.30;;;;;;;19.44;43.74;100288.59;5054372;28;20048;-75
2021/05/28 09:09:34;;;;;;;7.68;1.73;;;;;;;19.39;44.06;100294.41;5054146;28;20044;-77
2021/05/28 09:12:05;;;;;;;2.50;1.25;;;;;;;19.49;43.14;100285.41;5054059;28;20049;-77
2021/05/28 09:14:37;;;;;;;2.65;1.40;;;;;;;19.26;42.37;100284.94;5054324;28;20040;-75
2021/05/28 09:17:07;;;;;;;3.67;1.70;;;;;;;19.39;43.32;100291.72;5054103;28;20045;-75
2021/05/28 09:19:36;;;;;;;3.03;1.63;;;;;;;19.55;42.33;100292.97;5053722;28;20045;-74
2021/05/28 09:22:06;;;;;;;3.53;1.60;;;;;;;19.69;42.22;100300.63;5053150;28;20410;-76
2021/05/28 09:24:36;;;;;;;3.53;1.70;;;;;;;19.72;42.09;100292.19;5053402;28;20044;-76
2021/05/28 09:27:23;;;;;;;1.70;1.05;;;;;;;19.45;41.95;100287.59;5053727;28;20068;-75
2021/05/28 09:29:59;;;;;;;2.92;1.48;;;;;;;19.36;41.47;100294.72;5053541;28;20410;-74
2021/05/28 09:32:28;;;;;;;5.90;1.88;;;;;;;19.45;41.92;100288.44;5053545;28;20051;-73
2021/05/28 09:34:57;;;;;;;3.15;1.58;;;;;;;19.67;41.64;100283.66;5052598;28;20041;-74
2021/05/28 09:37:39;;;;;;;2.50;1.50;;;;;;;19.73;41.28;100291.19;5053563;28;20064;-72
2021/05/28 09:40:13;;;;;;;3.40;1.73;;;;;;;19.41;41.38;100292.44;5053820;28;20118;-73
2021/05/28 09:42:51;;;;;;;;;;;;;;;19.72;41.08;100275.97;5053671;28;20313;-78
2021/05/28 09:45:30;;;;;;;2.03;1.30;;;;;;;19.75;40.50;100297.31;5053062;28;19932;-81
2021/05/28 09:48:01;;;;;;;1.67;1.30;;;;;;;19.47;39.87;100295.53;5053407;28;20041;-76
2021/05/28 09:50:33;;;;;;;2.38;1.30;;;;;;;19.60;40.20;100288.84;5052643;28;20037;-76
2021/05/28 09:53:02;;;;;;;3.20;1.50;;;;;;;19.60;40.83;100290.69;5053492;28;20417;-72
2021/05/28 09:55:31;;;;;;;1.83;1.27;;;;;;;19.63;40.54;100287.69;5052662;28;20044;-73
2021/05/28 09:58:00;;;;;;;2.90;1.17;;;;;;;19.62;40.73;100300.38;5058099;28;20047;-73
2021/05/28 10:00:31;;;;;;;1.92;1.20;;;;;;;19.86;40.34;100285.41;5059176;28;20073;-77
2021/05/28 10:03:12;;;;;;;4.38;1.70;;;;;;;19.86;41.22;100280.84;5057776;28;20074;-72
2021/05/28 10:05:42;;;;;;;4.22;1.65;;;;;;;19.87;41.11;100292.53;5052900;28;20037;-72
2021/05/28 10:08:11;;;;;;;4.18;1.42;;;;;;;19.82;40.34;100298.41;5052877;28;20069;-72
2021/05/28 10:10:42;;;;;;;4.40;1.60;;;;;;;19.86;41.37;100299.81;5052916;28;20044;-78
2021/05/28 10:13:12;;;;;;;3.90;1.42;;;;;;;19.69;41.13;100293.38;5053187;28;20143;-80
2021/05/28 10:15:42;;;;;;;3.35;1.25;;;;;;;20.00;41.03;100285.78;5053017;28;20136;-79
2021/05/28 10:18:12;;;;;;;1.77;1.30;;;;;;;20.22;41.17;100291.75;5052953;28;20048;-71
2021/05/28 10:20:42;;;;;;;6.30;1.60;;;;;;;20.11;39.60;100295.53;5051133;28;20136;-71
2021/05/28 10:23:15;;;;;;;3.13;1.67;;;;;;;19.91;39.75;100305.63;5052491;28;20049;-74
2021/05/28 10:25:45;;;;;;;2.95;1.17;;;;;;;19.80;40.16;100289.59;5052764;28;20052;-75
2021/05/28 10:28:18;;;;;;;2.05;1.10;;;;;;;19.99;40.60;100275.97;5052282;28;20052;-71
2021/05/28 10:30:49;;;;;;;2.83;1.50;;;;;;;19.83;40.89;100286.59;5052439;28;20068;-76
2021/05/28 10:33:19;;;;;;;2.67;1.40;;;;;;;19.96;40.43;100280.81;5052000;28;20507;-74
2021/05/28 10:35:50;;;;;;;3.75;1.63;;;;;;;20.08;40.63;100285.03;5052027;28;20478;-71
2021/05/28 10:38:42;;;;;;;2.25;1.30;;;;;;;20.32;40.18;100292.53;5052461;28;20462;-74
2021/05/28 10:41:36;;;;;;;2.63;1.20;;;;;;;20.21;39.50;100290.91;5052070;28;20045;-71
2021/05/28 10:44:13;;;;;;;3.42;1.42;;;;;;;20.22;40.39;100283.63;5052042;28;20498;-76
2021/05/28 10:47:18;;;;;;;2.47;1.27;;;;;;;20.54;40.27;100281.25;5047452;28;20049;-73
2021/05/28 10:49:48;;;;;;;1.88;1.33;;;;;;;20.46;39.88;100285.75;5051148;28;20048;-76
2021/05/28 10:52:28;;;;;;;1.60;1.08;;;;;;;20.34;39.90;100278.84;5052093;28;20083;-76
2021/05/28 10:55:09;;;;;;;2.67;1.40;;;;;;;20.46;40.16;100277.63;5050667;28;20056;-74
2021/05/28 10:57:53;;;;;;;1.75;1.15;;;;;;;20.33;40.01;100272.56;5051911;28;20091;-75
2021/05/28 11:00:30;;;;;;;2.83;1.50;;;;;;;20.20;40.67;100270.25;5051783;28;20044;-76
2021/05/28 11:03:08;;;;;;;2.03;1.10;;;;;;;20.34;40.45;100282.41;5051505;28;20048;-74
2021/05/28 11:05:47;;;;;;;1.92;1.20;;;;;;;20.11;39.58;100268.47;5051742;28;20041;-72
2021/05/28 11:08:44;;;;;;;3.00;1.38;;;;;;;20.23;40.95;100285.34;5053472;28;20048;-71
2021/05/28 11:11:55;;;;;;;2.55;1.15;;;;;;;20.40;40.12;100279.06;5035536;28;20055;-71
2021/05/28 11:14:24;;;;;;;3.97;1.42;;;;;;;20.17;39.14;100284.09;5051220;28;20120;-72
2021/05/28 11:17:18;;;;;;;3.05;1.20;;;;;;;20.61;38.63;100299.63;5050956;28;20056;-70
2021/05/28 11:19:57;;;;;;;2.70;1.10;;;;;;;20.14;39.09;100283.53;5051219;28;20452;-70
2021/05/28 11:22:36;;;;;;;1.23;0.88;;;;;;;20.42;39.40;100273.50;5051197;28;20524;-70
2021/05/28 11:25:16;;;;;;;2.60;1.13;;;;;;;20.70;38.98;100280.56;5051439;28;20040;-73
2021/05/28 11:27:48;;;;;;;3.45;1.10;;;;;;;20.55;38.04;100282.09;5051487;28;20045;-72
2021/05/28 11:30:30;;;;;;;1.98;1.00;;;;;;;20.66;38.92;100271.06;5051296;28;20064;-74
2021/05/28 11:32:58;;;;;;;4.72;1.10;;;;;;;20.75;38.58;100271.94;5051352;28;20056;-72
2021/05/28 11:35:29;;;;;;;7.18;1.30;;;;;;;20.69;38.70;100278.00;5051334;28;20406;-72
2021/05/28 11:38:00;;;;;;;1.70;1.05;;;;;;;20.47;39.53;100279.34;5051219;28;20560;-76